Time;durP1;ratioP1;P1;durP2;ratioP2;P2;SDS_P1;SDS_P2;PMS_P1;PMS_P2;Temp;Humidity;BMP_temperature;BMP_pressure;BME280_temperature;BME280_humidity;BME280_pressure;Samples;Min_cycle;Max_cycle;Signal;HPM_P1;HPM_P2
2023/08/18 00:00:01;;;;;;;;;10.33;10.00;;;;;25.70;65.47;100059.72;5038698;28;45470;-78
2023/08/18 00:02:27;;;;;;;;;10.33;10.00;;;;;25.76;65.93;100064.81;5037848;28;45526;-78
2023/08/18 00:04:53;;;;;;;;;10.67;9.67;;;;;25.69;65.84;100039.25;5037796;28;45534;-78
2023/08/18 00:07:18;;;;;;;;;15.33;14.00;;;;;25.74;65.62;100055.97;5038242;28;46113;-78
2023/08/18 00:09:44;;;;;;;;;10.33;10.33;;;;;25.59;66.19;100044.97;5050596;28;45493;-78
2023/08/18 00:12:12;;;;;;;;;9.00;8.67;;;;;25.76;66.20;100054.09;5034685;28;45492;-78
2023/08/18 00:14:38;;;;;;;;;12.00;11.00;;;;;25.77;66.33;100047.84;5033193;28;45249;-79
2023/08/18 00:17:03;;;;;;;;;10.00;10.00;;;;;25.59;65.67;100015.53;5026488;28;45280;-79
2023/08/18 00:19:29;;;;;;;;;10.00;10.00;;;;;25.67;65.64;100020.59;5036715;28;45654;-78
2023/08/18 00:21:55;;;;;;;;;10.33;10.33;;;;;25.61;66.03;100010.13;5022165;28;45336;-78
2023/08/18 00:24:22;;;;;;;;;10.33;8.67;;;;;25.77;65.89;100037.13;5038713;28;45455;-78
2023/08/18 00:26:47;;;;;;;;;11.33;11.00;;;;;25.70;65.91;100024.94;5038115;28;45467;-79
2023/08/18 00:29:14;;;;;;;;;11.33;10.00;;;;;25.74;66.01;100040.78;5037966;28;45470;-79
2023/08/18 00:31:40;;;;;;;;;12.00;11.67;;;;;25.78;65.90;100034.41;5038226;28;45572;-77
2023/08/18 00:34:05;;;;;;;;;11.67;11.67;;;;;25.71;65.84;100029.34;5022743;28;45495;-79
2023/08/18 00:36:31;;;;;;;;;10.00;9.00;;;;;25.64;66.04;100009.13;5036451;28;46276;-79
2023/08/18 00:39:02;;;;;;;;;11.33;10.00;;;;;25.76;66.30;100027.34;5037909;28;45438;-78
2023/08/18 00:41:27;;;;;;;;;11.33;11.00;;;;;25.72;66.45;100025.75;5037695;28;45831;-78
2023/08/18 00:43:53;;;;;;;;;12.00;11.00;;;;;25.54;66.42;99995.25;5037822;28;45533;-79
2023/08/18 00:46:20;;;;;;;;;8.67;8.33;;;;;25.58;66.50;100016.47;5035897;28;45366;-78
2023/08/18 00:48:45;;;;;;;;;10.00;10.00;;;;;25.60;66.49;100005.72;5035672;28;45515;-78
2023/08/18 00:51:11;;;;;;;;;8.33;7.67;;;;;25.55;66.39;99986.31;5037061;28;45506;-79
2023/08/18 00:53:40;;;;;;;;;10.00;10.00;;;;;25.65;65.89;100002.88;5036031;28;45588;-79
2023/08/18 00:56:08;;;;;;;;;8.33;8.33;;;;;25.74;66.19;100019.38;5035861;28;47849;-79
2023/08/18 00:58:36;;;;;;;;;12.00;10.00;;;;;25.62;66.58;100016.34;5037190;28;45462;-78
2023/08/18 01:01:02;;;;;;;;;9.67;8.67;;;;;25.64;66.41;100019.84;5037133;28;45545;-78
2023/08/18 01:03:29;;;;;;;;;11.00;10.00;;;;;25.63;66.16;100015.44;5037672;28;45240;-78
2023/08/18 01:05:55;;;;;;;;;10.00;9.67;;;;;25.57;66.34;99992.47;5023746;28;47969;-78
2023/08/18 01:08:20;;;;;;;;;10.00;10.00;;;;;25.71;66.16;100019.53;5032952;28;45433;-79
2023/08/18 01:10:57;;;;;;;;;9.67;9.00;;;;;25.57;65.94;99995.16;5036975;28;45964;-79
2023/08/18 01:13:52;;;;;;;;;11.67;11.00;;;;;25.75;66.16;100026.50;5035812;28;45473;-78
2023/08/18 01:16:24;;;;;;;;;11.33;11.00;;;;;25.56;66.18;99990.72;5028670;28;46031;-78
2023/08/18 01:18:51;;;;;;;;;12.00;11.33;;;;;25.55;66.24;100002.38;5035361;28;45401;-78
2023/08/18 01:21:19;;;;;;;;;10.67;10.00;;;;;25.53;66.62;100025.63;5036584;28;45548;-78
2023/08/18 01:23:44;;;;;;;;;10.33;10.33;;;;;25.40;67.50;100006.50;5034915;28;45689;-78
2023/08/18 01:26:10;;;;;;;;;10.00;10.00;;;;;25.19;67.31;99994.84;5035341;28;46152;-78
2023/08/18 01:28:36;;;;;;;;;11.00;10.00;;;;;25.34;67.28;100021.00;5035047;28;45372;-79
2023/08/18 01:31:10;;;;;;;;;9.67;9.00;;;;;25.24;67.84;100016.06;5036181;28;45418;-78
2023/08/18 01:33:48;;;;;;;;;12.00;11.33;;;;;25.28;67.47;100013.22;5036708;28;45420;-79
2023/08/18 01:36:20;;;;;;;;;10.00;10.00;;;;;25.21;67.75;100019.72;5036725;28;45519;-79
2023/08/18 01:38:48;;;;;;;;;12.67;11.00;;;;;25.06;68.28;99997.13;5034710;28;45501;-78
2023/08/18 01:41:19;;;;;;;;;10.00;10.00;;;;;25.16;67.82;100005.66;5036215;28;45602;-79
2023/08/18 01:43:44;;;;;;;;;8.00;8.00;;;;;25.15;68.02;100014.63;5037227;28;45585;-78
2023/08/18 01:46:10;;;;;;;;;9.00;9.00;;;;;25.18;68.16;100015.34;5034759;28;46262;-79
2023/08/18 01:48:35;;;;;;;;;10.00;10.00;;;;;25.02;67.87;99993.69;5036695;28;45410;-78
2023/08/18 01:51:01;;;;;;;;;11.67;11.67;;;;;25.07;68.43;100012.22;5035888;28;45418;-78
2023/08/18 01:53:27;;;;;;;;;11.67;10.67;;;;;24.95;68.53;99996.69;5036817;28;45547;-79
2023/08/18 01:55:52;;;;;;;;;8.33;7.67;;;;;25.09;68.34;100018.38;5036663;28;45513;-78
2023/08/18 01:58:18;;;;;;;;;10.67;9.00;;;;;25.14;67.61;100012.84;5019301;28;45515;-78
2023/08/18 02:00:43;;;;;;;;;8.33;8.00;;;;;25.16;67.50;99993.16;5034484;28;45529;-78
2023/08/18 02:03:09;;;;;;;;;11.00;10.00;;;;;25.23;67.11;99987.59;5036444;28;45529;-78
2023/08/18 02:05:39;;;;;;;;;10.00;9.00;;;;;25.34;66.52;100010.28;5035463;28;45468;-78
2023/08/18 02:08:05;;;;;;;;;14.33;11.67;;;;;25.39;66.30;100018.16;5035835;28;45461;-78
2023/08/18 02:10:31;;;;;;;;;10.00;10.00;;;;;25.29;66.30;100000.75;5034670;28;45431;-79
2023/08/18 02:12:57;;;;;;;;;10.00;8.33;;;;;25.30;66.50;100007.81;5035064;28;45581;-78
2023/08/18 02:15:23;;;;;;;;;9.67;9.33;;;;;25.35;66.23;100017.41;5036162;28;46237;-78
2023/08/18 02:17:48;;;;;;;;;10.00;10.00;;;;;25.39;66.24;100007.47;5028014;28;45672;-79
2023/08/18 02:20:14;;;;;;;;;9.67;9.00;;;;;25.43;66.60;100008.19;5018087;28;45530;-78
2023/08/18 02:22:39;;;;;;;;;11.00;10.67;;;;;25.43;66.48;99992.13;5033559;28;45379;-78
2023/08/18 02:25:05;;;;;;;;;11.00;11.00;;;;;25.45;67.48;99999.19;5035561;28;45369;-79
2023/08/18 02:27:31;;;;;;;;;11.67;11.67;;;;;25.43;67.36;100003.72;5035845;28;45451;-79
2023/08/18 02:29:57;;;;;;;;;12.00;11.00;;;;;25.52;67.27;100016.72;5034622;28;45463;-78
2023/08/18 02:32:22;;;;;;;;;11.33;11.33;;;;;25.46;67.60;100013.44;5035752;28;45653;-78
2023/08/18 02:34:48;;;;;;;;;11.33;10.67;;;;;25.42;67.53;100003.78;5034600;28;47601;-78
2023/08/18 02:37:14;;;;;;;;;12.33;11.67;;;;;25.45;67.54;100017.03;5035843;28;45500;-79
2023/08/18 02:39:39;;;;;;;;;11.00;10.00;;;;;25.43;67.32;100024.22;5023595;28;45467;-79
2023/08/18 02:42:05;;;;;;;;;12.33;12.00;;;;;25.27;67.61;99998.13;5032819;28;45450;-78
2023/08/18 02:44:31;;;;;;;;;10.67;10.33;;;;;25.34;67.53;100021.00;5035874;28;45426;-78
2023/08/18 02:46:57;;;;;;;;;12.67;12.33;;;;;25.37;67.85;100022.69;5036080;28;45453;-79
2023/08/18 02:49:23;;;;;;;;;11.67;11.67;;;;;25.22;67.87;100010.78;5035963;28;45617;-78
2023/08/18 02:51:48;;;;;;;;;13.33;13.00;;;;;25.39;67.85;100040.41;5036367;28;45533;-79
2023/08/18 02:54:14;;;;;;;;;13.67;12.33;;;;;25.27;67.89;100030.19;5034355;28;45395;-78
2023/08/18 02:56:40;;;;;;;;;11.67;11.67;;;;;25.31;67.97;100036.31;5034416;28;45407;-79
2023/08/18 02:59:06;;;;;;;;;11.67;11.00;;;;;25.36;67.39;100039.66;5035707;28;45211;-78
2023/08/18 03:01:32;;;;;;;;;12.00;12.00;;;;;25.37;67.86;100047.63;5036017;28;45596;-78
2023/08/18 03:03:58;;;;;;;;;12.00;12.00;;;;;25.40;67.65;100044.81;5023121;28;47995;-78
2023/08/18 03:06:23;;;;;;;;;11.00;11.00;;;;;25.32;67.94;100038.03;5030450;28;45408;-78
2023/08/18 03:08:49;;;;;;;;;13.00;12.00;;;;;25.31;68.05;100037.16;5035065;28;45614;-78
2023/08/18 03:11:15;;;;;;;;;13.67;13.00;;;;;25.23;68.33;100027.69;5035492;28;45442;-79
2023/08/18 03:13:40;;;;;;;;;15.33;14.00;;;;;25.25;68.31;100025.81;5035459;28;45510;-78
2023/08/18 03:16:06;;;;;;;;;11.67;11.00;;;;;25.18;68.34;100014.47;5036341;28;45568;-78
2023/08/18 03:18:34;;;;;;;;;12.00;11.67;;;;;25.20;68.25;100010.81;5038856;28;45787;-78
2023/08/18 03:21:01;;;;;;;;;14.00;12.33;;;;;25.27;68.03;100029.31;5039061;28;45557;-78
2023/08/18 03:23:27;;;;;;;;;10.33;10.33;;;;;25.23;68.17;100006.31;5036767;28;48000;-78
2023/08/18 03:26:04;;;;;;;;;12.00;11.33;;;;;25.20;67.55;100000.13;5038331;28;45376;-78
2023/08/18 03:28:32;;;;;;;;;14.00;12.00;;;;;25.27;67.80;100016.84;5036995;28;45454;-78
2023/08/18 03:31:02;;;;;;;;;14.67;13.00;;;;;25.21;67.69;99998.34;5038576;28;45645;-78
2023/08/18 03:33:29;;;;;;;;;13.00;12.00;;;;;25.26;67.63;100006.19;5038413;28;45512;-78
2023/08/18 03:35:55;;;;;;;;;13.00;13.00;;;;;25.24;67.83;100013.41;5036654;28;45474;-78
2023/08/18 03:38:22;;;;;;;;;14.33;13.33;;;;;25.18;67.82;100001.13;5039177;28;45683;-78
2023/08/18 03:40:56;;;;;;;;;12.00;12.00;;;;;25.17;67.68;100005.59;5038647;28;45466;-78
2023/08/18 03:43:21;;;;;;;;;13.67;13.67;;;;;25.19;67.78;100001.06;5055036;28;47042;-78
2023/08/18 03:45:47;;;;;;;;;15.67;13.00;;;;;25.08;67.98;99987.22;5019497;28;45654;-78
2023/08/18 03:48:13;;;;;;;;;17.00;16.33;;;;;25.07;67.77;99980.16;5045149;28;45480;-78
2023/08/18 03:50:39;;;;;;;;;18.00;17.33;;;;;25.12;67.93;99979.97;5035866;28;45511;-78
2023/08/18 03:53:05;;;;;;;;;18.00;17.33;;;;;25.18;67.64;99991.28;5039659;28;46234;-78
2023/08/18 03:55:31;;;;;;;;;19.33;17.33;;;;;25.15;67.53;99987.88;5039064;28;45582;-78
2023/08/18 03:57:56;;;;;;;;;17.67;16.67;;;;;25.04;67.37;99964.22;5038546;28;45499;-79
2023/08/18 04:00:22;;;;;;;;;19.00;17.33;;;;;25.19;67.44;99978.81;5039016;28;45212;-79
2023/08/18 04:02:47;;;;;;;;;17.33;16.00;;;;;25.16;67.20;99974.44;5039218;28;46459;-79
2023/08/18 04:05:14;;;;;;;;;21.33;20.33;;;;;24.97;67.91;99963.63;5038414;28;45578;-79
2023/08/18 04:07:39;;;;;;;;;17.33;16.67;;;;;24.82;68.89;99942.81;5039363;28;45435;-79
2023/08/18 04:10:07;;;;;;;;;15.00;12.00;;;;;24.97;68.70;99968.97;5038579;28;45418;-79
2023/08/18 04:12:33;;;;;;;;;15.00;14.33;;;;;24.98;68.58;99960.00;5038197;28;46643;-78
2023/08/18 04:14:58;;;;;;;;;15.33;13.67;;;;;25.06;68.09;99965.03;5036844;28;45337;-78
2023/08/18 04:17:24;;;;;;;;;13.00;12.00;;;;;24.90;68.11;99951.41;5037869;28;45308;-78
2023/08/18 04:19:49;;;;;;;;;16.00;15.67;;;;;24.81;68.03;99936.63;5032350;28;45297;-78
2023/08/18 04:22:15;;;;;;;;;17.00;14.00;;;;;25.19;67.96;99992.19;5018482;28;45975;-79
2023/08/18 04:24:41;;;;;;;;;16.00;16.00;;;;;25.12;68.01;99985.31;5017436;28;45463;-79
2023/08/18 04:27:07;;;;;;;;;16.67;15.67;;;;;25.14;68.17;99980.78;5032573;28;45582;-78
2023/08/18 04:29:33;;;;;;;;;23.00;20.67;;;;;25.07;68.16;99969.47;5038072;28;45552;-78
2023/08/18 04:31:58;;;;;;;;;17.33;17.33;;;;;25.06;68.25;99972.19;5036143;28;45494;-79
2023/08/18 04:34:24;;;;;;;;;14.67;14.00;;;;;25.09;68.59;99972.97;5037600;28;45490;-79
2023/08/18 04:36:50;;;;;;;;;17.67;15.67;;;;;24.80;68.70;99942.88;5037364;28;45361;-79
2023/08/18 04:39:16;;;;;;;;;16.33;15.00;;;;;24.86;68.89;99971.16;5037998;28;45446;-79
2023/08/18 04:41:41;;;;;;;;;18.33;17.00;;;;;24.93;68.67;99971.78;5033067;28;46339;-79
2023/08/18 04:44:07;;;;;;;;;16.33;15.67;;;;;24.88;69.18;99968.44;5035407;28;45494;-78
2023/08/18 04:46:32;;;;;;;;;18.00;16.33;;;;;24.86;69.05;99963.16;5037528;28;45624;-79
2023/08/18 04:48:58;;;;;;;;;17.00;16.67;;;;;24.82;68.79;99956.19;5037718;28;45508;-78
2023/08/18 04:51:24;;;;;;;;;19.33;17.33;;;;;24.68;69.26;99935.34;5037752;28;45454;-79
2023/08/18 04:53:50;;;;;;;;;18.33;16.00;;;;;24.59;69.69;99930.34;5050848;28;45598;-78
2023/08/18 04:56:15;;;;;;;;;17.33;16.67;;;;;24.67;69.68;99949.63;5037270;28;45456;-78
2023/08/18 04:58:41;;;;;;;;;19.00;18.00;;;;;24.74;69.18;99960.94;5037312;28;45366;-78
2023/08/18 05:01:07;;;;;;;;;18.00;16.67;;;;;24.77;69.26;99958.16;5027645;28;46882;-79
2023/08/18 05:03:36;;;;;;;;;20.33;17.67;;;;;24.73;69.02;99929.81;5030188;28;45438;-78
2023/08/18 05:06:04;;;;;;;;;16.00;15.67;;;;;24.75;68.94;99931.50;5037085;28;45417;-78
2023/08/18 05:08:31;;;;;;;;;16.00;15.67;;;;;24.75;69.34;99931.50;5036434;28;45487;-79
2023/08/18 05:10:58;;;;;;;;;13.33;12.33;;;;;24.77;69.43;99923.41;5037182;28;46185;-79
2023/08/18 05:13:24;;;;;;;;;14.67;14.67;;;;;24.70;69.01;99912.13;5035982;28;45355;-79
2023/08/18 05:15:50;;;;;;;;;15.67;15.67;;;;;24.74;69.12;99919.06;5036689;28;45556;-78
2023/08/18 05:18:15;;;;;;;;;18.67;16.67;;;;;24.78;69.20;99917.16;5037071;28;45283;-79
2023/08/18 05:20:41;;;;;;;;;18.00;16.00;;;;;24.89;68.67;99909.63;5036008;28;45588;-79
2023/08/18 05:23:06;;;;;;;;;16.00;15.67;;;;;24.90;68.78;99900.66;5037164;28;45332;-78
2023/08/18 05:25:32;;;;;;;;;15.33;14.67;;;;;24.93;68.46;99891.63;5022839;28;46069;-77
2023/08/18 05:27:58;;;;;;;;;16.00;15.67;;;;;24.88;68.47;99882.94;5037667;28;45474;-78
2023/08/18 05:30:24;;;;;;;;;19.67;16.67;;;;;24.90;68.57;99873.94;5049453;28;47936;-78
2023/08/18 05:32:49;;;;;;;;;20.00;19.00;;;;;24.78;68.98;99848.56;5044628;28;45380;-77
2023/08/18 05:35:15;;;;;;;;;16.33;16.00;;;;;24.85;68.48;99845.66;5042579;28;45455;-77
2023/08/18 05:37:40;;;;;;;;;16.67;14.67;;;;;25.04;68.43;99862.69;5045318;28;45355;-78
2023/08/18 05:40:07;;;;;;;;;15.67;14.67;;;;;25.04;68.54;99846.66;5038037;28;46319;-78
2023/08/18 05:42:33;;;;;;;;;20.67;17.33;;;;;25.24;68.21;99866.38;5035780;28;45607;-77
2023/08/18 05:44:58;;;;;;;;;18.00;14.00;;;;;25.22;67.66;99841.53;5043402;28;45565;-77
2023/08/18 05:47:24;;;;;;;;;18.00;17.33;;;;;25.44;67.54;99860.19;5036316;28;45454;-78
2023/08/18 05:49:49;;;;;;;;;17.00;16.67;;;;;25.55;66.86;99868.66;5036079;28;45450;-77
2023/08/18 05:52:15;;;;;;;;;19.33;16.33;;;;;25.42;66.71;99836.19;5044508;28;45455;-78
2023/08/18 05:54:41;;;;;;;;;19.67;16.33;;;;;25.58;66.37;99847.97;5046864;28;45512;-77
2023/08/18 05:57:06;;;;;;;;;18.33;17.00;;;;;25.63;66.10;99842.44;5043107;28;45459;-78
2023/08/18 05:59:32;;;;;;;;;18.00;17.33;;;;;25.72;65.70;99844.69;5041253;28;46198;-78
2023/08/18 06:01:59;;;;;;;;;15.33;15.33;;;;;25.94;65.55;99866.06;5032517;28;45479;-77
2023/08/18 06:04:25;;;;;;;;;16.00;15.00;;;;;25.91;65.08;99860.84;5041511;28;45724;-78
2023/08/18 06:06:51;;;;;;;;;17.00;16.00;;;;;25.96;65.19;99863.31;5044671;28;46195;-78
2023/08/18 06:09:16;;;;;;;;;14.00;13.33;;;;;26.03;65.07;99863.91;5031105;28;46474;-77
2023/08/18 06:11:42;;;;;;;;;16.67;15.33;;;;;26.04;65.14;99846.91;5033419;28;47064;-78
2023/08/18 06:14:08;;;;;;;;;15.33;13.67;;;;;26.14;65.18;99869.63;5034494;28;45843;-78
2023/08/18 06:16:33;;;;;;;;;16.00;15.67;;;;;26.22;64.43;99856.78;5032782;28;45622;-79
2023/08/18 06:18:59;;;;;;;;;18.33;16.33;;;;;26.17;64.22;99840.06;5033684;28;46229;-79
2023/08/18 06:21:25;;;;;;;;;17.00;13.33;;;;;26.04;64.61;99836.22;5043342;28;45450;-79
2023/08/18 06:23:50;;;;;;;;;17.33;15.33;;;;;26.02;64.81;99851.47;5041713;28;45462;-79
2023/08/18 06:26:16;;;;;;;;;17.67;15.33;;;;;25.75;64.72;99827.66;5038898;28;45356;-79
2023/08/18 06:28:41;;;;;;;;;16.67;13.67;;;;;25.82;65.64;99861.22;5028739;28;45483;-79
2023/08/18 06:31:08;;;;;;;;;12.67;12.67;;;;;25.85;65.25;99874.47;5025076;28;45407;-79
2023/08/18 06:33:36;;;;;;;;;12.67;12.67;;;;;25.76;65.41;99862.34;5032424;28;45676;-79
2023/08/18 06:36:03;;;;;;;;;15.33;13.33;;;;;25.83;65.42;99864.78;5030340;28;45709;-79
2023/08/18 06:38:29;;;;;;;;;14.67;14.00;;;;;25.84;65.31;99863.81;5039956;28;45482;-78
2023/08/18 06:40:55;;;;;;;;;16.67;15.67;;;;;25.72;65.70;99849.19;5028900;28;45358;-79
2023/08/18 06:43:21;;;;;;;;;16.00;15.00;;;;;25.76;65.58;99845.44;5029481;28;45339;-77
2023/08/18 06:45:46;;;;;;;;;14.00;12.67;;;;;25.60;65.77;99838.09;5025371;28;45653;-79
2023/08/18 06:48:12;;;;;;;;;13.00;12.00;;;;;25.74;65.41;99847.31;5030980;28;45999;-79
2023/08/18 06:50:38;;;;;;;;;15.33;15.00;;;;;25.90;65.11;99832.34;5030530;28;45409;-78
2023/08/18 06:53:05;;;;;;;;;14.67;12.67;;;;;26.31;64.14;99851.00;5030169;28;45240;-78
2023/08/18 06:55:31;;;;;;;;;14.67;14.33;;;;;26.64;63.70;99860.22;5034298;28;45774;-78
2023/08/18 06:57:57;;;;;;;;;16.00;13.33;;;;;27.12;62.50;99856.13;5028719;28;45537;-78
2023/08/18 07:00:23;;;;;;;;;14.33;13.00;;;;;28.61;59.48;99869.00;5035852;28;45495;-79
2023/08/18 07:02:49;;;;;;;;;14.67;13.33;;;;;30.03;55.10;99858.97;5040064;28;45494;-79
2023/08/18 07:05:16;;;;;;;;;13.67;13.00;;;;;32.36;50.78;99855.25;5051797;28;45403;-78
2023/08/18 07:07:42;;;;;;;;;14.33;14.00;;;;;34.21;45.98;99856.66;5049581;28;45602;-80
2023/08/18 07:10:09;;;;;;;;;12.00;11.00;;;;;35.40;42.53;99834.25;5048019;28;45374;-79
2023/08/18 07:12:35;;;;;;;;;13.67;11.33;;;;;36.46;42.84;99837.75;5047949;28;45682;-79
2023/08/18 07:15:00;;;;;;;;;12.00;11.33;;;;;37.80;39.36;99845.38;5049292;28;45415;-79
2023/08/18 07:17:26;;;;;;;;;10.67;10.00;;;;;38.76;38.47;99847.91;5046645;28;45485;-78
2023/08/18 07:19:52;;;;;;;;;11.00;11.00;;;;;39.73;35.70;99835.38;5047371;28;45491;-79
2023/08/18 07:22:17;;;;;;;;;11.33;10.67;;;;;39.51;33.82;99841.34;5043189;28;45445;-79
2023/08/18 07:24:43;;;;;;;;;13.00;12.67;;;;;38.93;36.09;99839.88;5042543;28;45613;-79
2023/08/18 07:27:09;;;;;;;;;10.33;10.33;;;;;39.88;35.70;99854.81;5042499;28;45520;-79
2023/08/18 07:29:34;;;;;;;;;14.00;13.00;;;;;40.46;33.46;99863.38;5044054;28;45404;-73
2023/08/18 07:32:01;;;;;;;;;2.33;1.67;;;;;40.91;31.86;99852.09;5044211;28;45671;-74
2023/08/18 07:34:27;;;;;;;;;9.33;9.00;;;;;42.02;30.91;99839.81;5040648;28;45703;-73
2023/08/18 07:36:52;;;;;;;;;10.00;9.00;;;;;42.99;29.62;99844.22;5047064;28;45888;-79
2023/08/18 07:39:18;;;;;;;;;9.67;9.67;;;;;43.72;28.17;99842.00;5038107;28;45438;-73
2023/08/18 07:41:44;;;;;;;;;8.00;8.00;;;;;44.59;27.02;99849.63;5038527;28;45443;-73
2023/08/18 07:44:10;;;;;;;;;8.00;7.33;;;;;43.27;28.96;99817.94;5038607;28;45506;-76
2023/08/18 07:46:36;;;;;;;;;10.00;10.00;;;;;42.31;29.96;99830.97;5037947;28;45573;-72
2023/08/18 07:49:03;;;;;;;;;5.33;5.33;;;;;41.08;31.57;99819.22;5043935;28;45560;-73
2023/08/18 07:51:29;;;;;;;;;6.33;6.33;;;;;40.03;32.86;99813.16;5048395;28;45410;-75
2023/08/18 07:53:54;;;;;;;;;6.67;6.67;;;;;38.86;35.59;99792.34;5028116;28;45838;-73
2023/08/18 07:56:20;;;;;;;;;7.00;7.00;;;;;38.20;36.12;99811.56;5042640;28;45998;-73
2023/08/18 07:58:46;;;;;;;;;9.00;8.67;;;;;38.34;35.96;99801.13;5043377;28;45566;-75
2023/08/18 08:01:11;;;;;;;;;8.33;8.33;;;;;38.27;36.96;99805.50;5044022;28;45472;-72
2023/08/18 08:03:37;;;;;;;;;7.33;7.33;;;;;37.93;36.47;99773.31;5039404;28;45567;-72
2023/08/18 08:06:06;;;;;;;;;8.00;7.67;;;;;37.84;36.67;99817.81;5020954;28;45986;-71
2023/08/18 08:08:32;;;;;;;;;5.33;5.33;;;;;37.44;37.63;99797.91;5037183;28;45426;-71
2023/08/18 08:10:58;;;;;;;;;5.00;5.00;;;;;37.63;37.11;99798.94;5034523;28;45467;-73
2023/08/18 08:13:25;;;;;;;;;4.00;4.00;;;;;38.09;36.54;99802.69;5017403;28;45410;-73
2023/08/18 08:15:50;;;;;;;;;6.00;6.00;;;;;39.40;35.51;99800.59;5031182;28;45944;-72
2023/08/18 08:18:18;;;;;;;;;6.33;6.00;;;;;41.31;32.31;99803.84;5035889;28;45431;-73
2023/08/18 08:20:45;;;;;;;;;8.00;8.00;;;;;42.81;30.38;99787.66;5037503;28;45583;-72
2023/08/18 08:23:10;;;;;;;;;5.67;5.00;;;;;43.42;29.15;99803.41;5035825;28;45375;-72
2023/08/18 08:25:40;;;;;;;;;11.00;10.00;;;;;44.13;28.75;99798.38;5037409;28;45570;-73
2023/08/18 08:28:06;;;;;;;;;5.00;5.00;;;;;44.54;27.62;99766.72;5037282;28;45267;-73
2023/08/18 08:30:31;;;;;;;;;5.00;4.67;;;;;45.35;27.99;99755.50;5036536;28;47151;-72
2023/08/18 08:32:57;;;;;;;;;5.00;5.00;;;;;45.99;26.08;99784.81;5036480;28;45436;-73
2023/08/18 08:35:24;;;;;;;;;6.00;6.00;;;;;45.72;26.29;99790.13;5036510;28;46085;-72
2023/08/18 08:37:49;;;;;;;;;6.00;5.00;;;;;46.16;26.31;99782.56;5036329;28;45497;-72
2023/08/18 08:40:20;;;;;;;;;10.00;10.00;;;;;46.47;25.49;99782.09;5036774;28;46288;-73
2023/08/18 08:42:48;;;;;;;;;4.00;3.67;;;;;46.73;26.18;99780.47;5036989;28;45398;-74
2023/08/18 08:45:14;;;;;;;;;3.33;3.33;;;;;47.69;25.82;99795.91;5037016;28;45434;-74
2023/08/18 08:47:40;;;;;;;;;4.00;4.00;;;;;48.33;25.21;99799.81;5034771;28;45407;-74
2023/08/18 08:50:07;;;;;;;;;4.33;3.67;;;;;48.65;24.50;99789.69;5037109;28;45395;-73
2023/08/18 08:52:38;;;;;;;;;5.00;4.00;;;;;48.71;24.77;99805.41;5036734;28;45453;-73
2023/08/18 08:55:04;;;;;;;;;6.67;6.67;;;;;48.85;23.96;99795.09;5039012;28;45367;-73
2023/08/18 08:57:30;;;;;;;;;4.67;4.67;;;;;49.06;23.60;99802.22;5043113;28;45314;-72
2023/08/18 08:59:56;;;;;;;;;6.00;6.00;;;;;49.11;23.64;99807.94;5040798;28;45448;-73
2023/08/18 09:02:22;;;;;;;;;5.33;5.00;;;;;48.83;23.92;99813.00;5042173;28;45489;-71
2023/08/18 09:04:48;;;;;;;;;6.33;6.00;;;;;48.61;24.61;99809.69;5044239;28;46026;-74
2023/08/18 09:07:14;;;;;;;;;5.67;5.67;;;;;48.87;23.63;99812.34;5041813;28;45402;-72
2023/08/18 09:09:41;;;;;;;;;7.67;6.67;;;;;49.18;23.04;99814.28;5042004;28;45432;-74
2023/08/18 09:12:08;;;;;;;;;10.00;10.00;;;;;49.09;24.02;99809.25;5042446;28;45518;-74
2023/08/18 09:14:35;;;;;;;;;9.00;8.33;;;;;49.11;22.68;99815.44;5037427;28;45544;-74
2023/08/18 09:17:02;;;;;;;;;4.00;4.00;;;;;48.87;23.63;99819.81;5035897;28;45430;-73
2023/08/18 09:19:28;;;;;;;;;6.67;6.00;;;;;49.10;23.96;99817.34;5035287;28;45681;-74
2023/08/18 09:21:57;;;;;;;;;5.33;5.33;;;;;49.18;22.48;99816.22;5031684;28;45585;-74
2023/08/18 09:24:22;;;;;;;;;4.67;4.00;;;;;48.27;23.84;99809.84;5023677;28;45512;-74
2023/08/18 09:26:48;;;;;;;;;6.00;5.00;;;;;48.17;24.38;99807.53;5035799;28;47259;-75
2023/08/18 09:29:14;;;;;;;;;7.33;7.33;;;;;48.21;23.86;99813.47;5036083;28;45375;-74
2023/08/18 09:31:40;;;;;;;;;5.33;5.33;;;;;47.56;24.38;99781.03;5036329;28;45534;-74
2023/08/18 09:34:06;;;;;;;;;5.33;4.33;;;;;46.86;25.40;99801.78;5018050;28;46708;-73
2023/08/18 09:36:32;;;;;;;;;5.67;5.67;;;;;46.83;26.00;99795.59;5032996;28;45603;-74
2023/08/18 09:39:02;;;;;;;;;5.67;5.67;;;;;47.35;25.88;99793.13;5041662;28;45291;-73
2023/08/18 09:41:28;;;;;;;;;6.67;6.67;;;;;47.23;24.70;99789.31;5035169;28;45514;-73
2023/08/18 09:43:53;;;;;;;;;4.33;4.33;;;;;46.93;25.67;99780.53;5033566;28;46249;-73
2023/08/18 09:46:21;;;;;;;;;5.00;5.00;;;;;46.78;25.19;99767.72;5034084;28;45470;-74
2023/08/18 09:48:49;;;;;;;;;4.67;4.67;;;;;46.85;25.52;99789.88;5034540;28;45345;-73
2023/08/18 09:51:20;;;;;;;;;7.00;6.33;;;;;46.69;25.79;99787.47;5034323;28;45478;-75
2023/08/18 09:53:58;;;;;;;;;4.33;4.33;;;;;46.33;26.31;99792.22;5017653;28;46914;-74
2023/08/18 09:56:28;;;;;;;;;6.00;6.00;;;;;45.88;26.87;99794.50;5032627;28;45607;-75
2023/08/18 09:59:07;;;;;;;;;9.00;8.67;;;;;44.88;27.10;99788.09;5035243;28;45376;-74
2023/08/18 10:01:36;;;;;;;;;5.67;5.33;;;;;44.53;28.75;99789.78;5034583;28;45434;-75
2023/08/18 10:04:02;;;;;;;;;6.33;6.33;;;;;45.09;27.89;99790.03;5034865;28;45627;-74
2023/08/18 10:06:30;;;;;;;;;7.33;7.00;;;;;45.41;27.31;99787.78;5035082;28;45525;-73
2023/08/18 10:08:57;;;;;;;;;6.67;6.67;;;;;45.36;27.18;99777.31;5032167;28;45443;-73
2023/08/18 10:11:23;;;;;;;;;7.00;7.00;;;;;45.46;27.29;99775.06;5032265;28;46765;-72
2023/08/18 10:13:51;;;;;;;;;3.00;3.00;;;;;45.57;27.18;99783.88;5036119;28;45400;-74
2023/08/18 10:16:18;;;;;;;;;7.00;7.00;;;;;45.18;27.32;99775.03;5024221;28;45587;-74
2023/08/18 10:18:44;;;;;;;;;7.33;6.33;;;;;44.90;28.02;99774.97;5035661;28;45562;-73
2023/08/18 10:21:11;;;;;;;;;6.33;6.33;;;;;44.06;28.39;99773.50;5035251;28;45409;-73
2023/08/18 10:23:41;;;;;;;;;5.67;5.67;;;;;44.05;29.06;99771.78;5035186;28;45329;-70
2023/08/18 10:26:07;;;;;;;;;5.33;5.33;;;;;44.59;28.98;99761.47;5022992;28;45454;-72
2023/08/18 10:28:34;;;;;;;;;6.00;6.00;;;;;44.60;28.45;99757.69;5029215;28;45625;-72
2023/08/18 10:31:13;;;;;;;;;6.33;6.00;;;;;44.46;28.73;99768.50;5033304;28;45351;-72
2023/08/18 10:33:43;;;;;;;;;5.00;5.00;;;;;44.39;28.81;99752.94;5035314;28;45359;-73
2023/08/18 10:36:12;;;;;;;;;7.00;6.67;;;;;44.02;29.35;99766.66;5035712;28;45310;-72
2023/08/18 10:38:41;;;;;;;;;5.33;5.33;;;;;44.11;29.12;99753.66;5035051;28;45170;-71
2023/08/18 10:41:08;;;;;;;;;4.67;4.00;;;;;43.86;29.71;99756.69;5035661;28;45312;-71
2023/08/18 10:43:51;;;;;;;;;7.67;7.67;;;;;43.07;30.34;99756.22;5035409;28;45546;-71
2023/08/18 10:46:17;;;;;;;;;6.33;6.33;;;;;42.85;30.09;99753.28;5035402;28;45521;-71
2023/08/18 10:48:43;;;;;;;;;6.00;6.00;;;;;42.67;31.22;99750.00;5035884;28;45467;-71
2023/08/18 10:51:09;;;;;;;;;4.67;4.67;;;;;42.50;31.41;99751.97;5034763;28;45550;-71
2023/08/18 10:53:37;;;;;;;;;5.00;5.00;;;;;42.32;31.92;99744.84;5036087;28;45473;-71
2023/08/18 10:56:06;;;;;;;;;5.33;5.33;;;;;42.19;32.05;99749.22;5035949;28;45178;-72
2023/08/18 10:58:34;;;;;;;;;5.33;5.33;;;;;41.90;32.70;99748.78;5035944;28;45494;-72
2023/08/18 11:01:00;;;;;;;;;7.00;7.00;;;;;41.68;33.36;99744.03;5035859;28;45418;-72
2023/08/18 11:03:26;;;;;;;;;6.33;5.67;;;;;41.46;33.23;99731.88;5035754;28;45158;-71
2023/08/18 11:05:52;;;;;;;;;5.67;5.67;;;;;41.15;34.34;99743.56;5035811;28;45385;-72
2023/08/18 11:08:18;;;;;;;;;8.00;7.67;;;;;41.14;34.40;99734.47;5035593;28;45161;-71
2023/08/18 11:10:44;;;;;;;;;6.33;6.33;;;;;41.08;33.52;99723.34;5034867;28;45467;-72
2023/08/18 11:13:21;;;;;;;;;7.33;6.67;;;;;41.12;35.16;99727.44;5035629;28;46162;-72
2023/08/18 11:15:50;;;;;;;;;7.00;7.00;;;;;41.01;35.44;99725.03;5032587;28;45727;-72
2023/08/18 11:18:15;;;;;;;;;7.33;7.33;;;;;40.77;34.78;99710.34;5032982;28;45469;-72